Lewisburg, Louisiana
Current Conditions -  °F | °C
As of 10:53 PM on Friday 19 Dec 2014 (Local Time) from KASD Reporting Station
Light Rain Light Rain  
Wind Chill: 47°   Ceiling: 1800
Heat Index: 49°   Visibility: 9mi
Dew Point: 46°   Wind: 5mph
Humidity: 90%   Direction: 40°NE
Pressure: 30.09"   Gusts: NA
Location:  30.3898°N, 90.0068°W
Report Text: KASD 200453Z AUTO 04004KT 9SM -RA FEW007 OVC018 09/08 A3009 RMK AO2 SLP189 P0003 T00940078
Loading
Personal Weather Stations






























Interactive Weather Map New forecast layout! Learn more

10-Day Weather Forecast

Advertisements
Track Severe Weather on mobile